sensor_id;sensor_type;location;lat;lon;timestamp;P1;durP1;ratioP1;P2;durP2;ratioP2
37647;SDS011;23490;53.656;10.076;2022-11-25T00:02:04;31.95;;;14.23;;
37647;SDS011;23490;53.656;10.076;2022-11-25T00:04:30;31.13;;;12.40;;
37647;SDS011;23490;53.656;10.076;2022-11-25T00:07:00;43.22;;;15.93;;
37647;SDS011;23490;53.656;10.076;2022-11-25T00:09:26;50.70;;;14.52;;
37647;SDS011;23490;53.656;10.076;2022-11-25T00:11:51;53.85;;;15.13;;
37647;SDS011;23490;53.656;10.076;2022-11-25T00:14:17;68.60;;;18.38;;
37647;SDS011;23490;53.656;10.076;2022-11-25T00:16:42;94.13;;;17.65;;
37647;SDS011;23490;53.656;10.076;2022-11-25T00:19:08;93.05;;;16.38;;
37647;SDS011;23490;53.656;10.076;2022-11-25T00:21:34;64.70;;;16.73;;
37647;SDS011;23490;53.656;10.076;2022-11-25T00:24:01;59.40;;;16.40;;
37647;SDS011;23490;53.656;10.076;2022-11-25T00:26:29;60.13;;;15.35;;
37647;SDS011;23490;53.656;10.076;2022-11-25T00:28:57;75.47;;;15.93;;
37647;SDS011;23490;53.656;10.076;2022-11-25T00:31:25;91.32;;;19.08;;
37647;SDS011;23490;53.656;10.076;2022-11-25T00:33:52;73.57;;;17.77;;
37647;SDS011;23490;53.656;10.076;2022-11-25T00:36:24;66.88;;;16.80;;
37647;SDS011;23490;53.656;10.076;2022-11-25T00:38:55;56.45;;;16.77;;
37647;SDS011;23490;53.656;10.076;2022-11-25T00:41:22;75.68;;;16.90;;
37647;SDS011;23490;53.656;10.076;2022-11-25T00:44:08;54.45;;;15.27;;
37647;SDS011;23490;53.656;10.076;2022-11-25T00:46:53;58.30;;;16.80;;
37647;SDS011;23490;53.656;10.076;2022-11-25T00:49:18;60.42;;;16.38;;
37647;SDS011;23490;53.656;10.076;2022-11-25T00:51:44;52.50;;;16.63;;
37647;SDS011;23490;53.656;10.076;2022-11-25T00:54:09;66.28;;;16.70;;
37647;SDS011;23490;53.656;10.076;2022-11-25T00:56:34;45.92;;;15.90;;
37647;SDS011;23490;53.656;10.076;2022-11-25T00:58:59;53.53;;;16.52;;
37647;SDS011;23490;53.656;10.076;2022-11-25T01:01:25;39.75;;;14.88;;
37647;SDS011;23490;53.656;10.076;2022-11-25T01:03:51;48.35;;;15.85;;
37647;SDS011;23490;53.656;10.076;2022-11-25T01:06:17;35.35;;;14.70;;
37647;SDS011;23490;53.656;10.076;2022-11-25T01:08:43;38.38;;;15.55;;
37647;SDS011;23490;53.656;10.076;2022-11-25T01:11:11;43.03;;;16.92;;
37647;SDS011;23490;53.656;10.076;2022-11-25T01:13:37;47.47;;;15.10;;
37647;SDS011;23490;53.656;10.076;2022-11-25T01:16:03;45.30;;;16.23;;
37647;SDS011;23490;53.656;10.076;2022-11-25T01:18:30;41.92;;;17.65;;
37647;SDS011;23490;53.656;10.076;2022-11-25T01:21:10;42.97;;;16.02;;
37647;SDS011;23490;53.656;10.076;2022-11-25T01:23:37;40.88;;;16.73;;
37647;SDS011;23490;53.656;10.076;2022-11-25T01:26:04;44.95;;;16.85;;
37647;SDS011;23490;53.656;10.076;2022-11-25T01:28:31;39.30;;;15.35;;
37647;SDS011;23490;53.656;10.076;2022-11-25T01:33:30;39.17;;;16.38;;
37647;SDS011;23490;53.656;10.076;2022-11-25T01:36:03;52.03;;;18.20;;
37647;SDS011;23490;53.656;10.076;2022-11-25T01:38:30;47.20;;;17.42;;
37647;SDS011;23490;53.656;10.076;2022-11-25T01:40:56;41.65;;;15.85;;
37647;SDS011;23490;53.656;10.076;2022-11-25T01:43:22;38.78;;;16.60;;
37647;SDS011;23490;53.656;10.076;2022-11-25T01:45:48;38.55;;;14.65;;
37647;SDS011;23490;53.656;10.076;2022-11-25T01:48:17;32.90;;;15.18;;
37647;SDS011;23490;53.656;10.076;2022-11-25T01:50:49;43.83;;;16.20;;
37647;SDS011;23490;53.656;10.076;2022-11-25T01:53:15;40.40;;;15.45;;
37647;SDS011;23490;53.656;10.076;2022-11-25T01:55:44;49.45;;;16.85;;
37647;SDS011;23490;53.656;10.076;2022-11-25T01:58:15;39.17;;;15.55;;
37647;SDS011;23490;53.656;10.076;2022-11-25T02:00:45;41.85;;;16.25;;
37647;SDS011;23490;53.656;10.076;2022-11-25T02:03:16;45.60;;;16.80;;
37647;SDS011;23490;53.656;10.076;2022-11-25T02:05:54;44.83;;;18.08;;
37647;SDS011;23490;53.656;10.076;2022-11-25T02:08:27;40.33;;;16.20;;
37647;SDS011;23490;53.656;10.076;2022-11-25T02:10:53;44.33;;;17.63;;
37647;SDS011;23490;53.656;10.076;2022-11-25T02:13:20;54.22;;;18.25;;
37647;SDS011;23490;53.656;10.076;2022-11-25T02:15:46;50.50;;;17.10;;
37647;SDS011;23490;53.656;10.076;2022-11-25T02:18:12;46.33;;;16.38;;
37647;SDS011;23490;53.656;10.076;2022-11-25T02:20:37;46.40;;;16.52;;
37647;SDS011;23490;53.656;10.076;2022-11-25T02:25:54;45.78;;;15.63;;
37647;SDS011;23490;53.656;10.076;2022-11-25T02:28:24;38.45;;;15.35;;
37647;SDS011;23490;53.656;10.076;2022-11-25T02:30:51;46.08;;;17.58;;
37647;SDS011;23490;53.656;10.076;2022-11-25T02:33:17;47.60;;;17.02;;
37647;SDS011;23490;53.656;10.076;2022-11-25T02:35:45;48.25;;;16.30;;
37647;SDS011;23490;53.656;10.076;2022-11-25T02:40:43;41.22;;;16.30;;
37647;SDS011;23490;53.656;10.076;2022-11-25T02:43:13;44.83;;;16.30;;
37647;SDS011;23490;53.656;10.076;2022-11-25T02:45:50;46.00;;;15.45;;
37647;SDS011;23490;53.656;10.076;2022-11-25T02:48:20;45.92;;;16.52;;
37647;SDS011;23490;53.656;10.076;2022-11-25T02:50:46;45.17;;;16.75;;
37647;SDS011;23490;53.656;10.076;2022-11-25T02:53:12;46.92;;;14.88;;
37647;SDS011;23490;53.656;10.076;2022-11-25T02:55:37;43.92;;;16.27;;
37647;SDS011;23490;53.656;10.076;2022-11-25T02:58:03;35.53;;;17.05;;
37647;SDS011;23490;53.656;10.076;2022-11-25T03:00:28;43.80;;;15.15;;
37647;SDS011;23490;53.656;10.076;2022-11-25T03:02:54;42.13;;;16.13;;
37647;SDS011;23490;53.656;10.076;2022-11-25T03:05:22;50.53;;;16.60;;
37647;SDS011;23490;53.656;10.076;2022-11-25T03:07:48;45.60;;;16.85;;
37647;SDS011;23490;53.656;10.076;2022-11-25T03:10:13;41.35;;;15.38;;
37647;SDS011;23490;53.656;10.076;2022-11-25T03:12:38;42.53;;;16.92;;
37647;SDS011;23490;53.656;10.076;2022-11-25T03:15:04;43.20;;;17.42;;
37647;SDS011;23490;53.656;10.076;2022-11-25T03:17:29;44.90;;;16.42;;
37647;SDS011;23490;53.656;10.076;2022-11-25T03:19:55;53.78;;;17.10;;
37647;SDS011;23490;53.656;10.076;2022-11-25T03:22:21;41.20;;;15.88;;
37647;SDS011;23490;53.656;10.076;2022-11-25T03:24:47;44.05;;;15.80;;
37647;SDS011;23490;53.656;10.076;2022-11-25T03:27:12;50.42;;;16.98;;
37647;SDS011;23490;53.656;10.076;2022-11-25T03:29:37;40.08;;;15.45;;
37647;SDS011;23490;53.656;10.076;2022-11-25T03:32:03;44.95;;;15.90;;
37647;SDS011;23490;53.656;10.076;2022-11-25T03:34:28;43.40;;;15.30;;
37647;SDS011;23490;53.656;10.076;2022-11-25T03:36:53;37.28;;;15.18;;
37647;SDS011;23490;53.656;10.076;2022-11-25T03:39:19;42.88;;;15.10;;
37647;SDS011;23490;53.656;10.076;2022-11-25T03:41:45;45.53;;;15.82;;
37647;SDS011;23490;53.656;10.076;2022-11-25T03:44:10;49.50;;;15.82;;
37647;SDS011;23490;53.656;10.076;2022-11-25T03:46:35;40.83;;;16.13;;
37647;SDS011;23490;53.656;10.076;2022-11-25T03:49:01;52.63;;;16.45;;
37647;SDS011;23490;53.656;10.076;2022-11-25T03:51:26;42.05;;;15.13;;
37647;SDS011;23490;53.656;10.076;2022-11-25T03:53:51;39.22;;;16.48;;
37647;SDS011;23490;53.656;10.076;2022-11-25T03:56:17;45.50;;;16.40;;
37647;SDS011;23490;53.656;10.076;2022-11-25T03:58:43;48.95;;;17.00;;
37647;SDS011;23490;53.656;10.076;2022-11-25T04:01:08;49.03;;;17.20;;
37647;SDS011;23490;53.656;10.076;2022-11-25T04:03:33;52.10;;;16.98;;
37647;SDS011;23490;53.656;10.076;2022-11-25T04:05:59;46.47;;;15.93;;
37647;SDS011;23490;53.656;10.076;2022-11-25T04:08:24;50.15;;;16.25;;
37647;SDS011;23490;53.656;10.076;2022-11-25T04:10:49;44.42;;;15.57;;
37647;SDS011;23490;53.656;10.076;2022-11-25T04:13:15;42.20;;;15.05;;
37647;SDS011;23490;53.656;10.076;2022-11-25T04:15:44;41.67;;;14.82;;
37647;SDS011;23490;53.656;10.076;2022-11-25T04:18:13;39.50;;;16.42;;
37647;SDS011;23490;53.656;10.076;2022-11-25T04:20:39;47.17;;;15.00;;
37647;SDS011;23490;53.656;10.076;2022-11-25T04:23:04;42.72;;;15.63;;
37647;SDS011;23490;53.656;10.076;2022-11-25T04:25:30;45.53;;;16.13;;
37647;SDS011;23490;53.656;10.076;2022-11-25T04:27:56;43.45;;;15.38;;
37647;SDS011;23490;53.656;10.076;2022-11-25T04:30:21;45.22;;;15.30;;
37647;SDS011;23490;53.656;10.076;2022-11-25T04:32:47;43.53;;;14.80;;
37647;SDS011;23490;53.656;10.076;2022-11-25T04:35:12;39.60;;;14.90;;
37647;SDS011;23490;53.656;10.076;2022-11-25T04:37:37;41.03;;;14.98;;
37647;SDS011;23490;53.656;10.076;2022-11-25T04:40:03;43.65;;;14.90;;
37647;SDS011;23490;53.656;10.076;2022-11-25T04:42:29;45.38;;;16.17;;
37647;SDS011;23490;53.656;10.076;2022-11-25T04:44:58;42.28;;;16.23;;
37647;SDS011;23490;53.656;10.076;2022-11-25T04:47:25;37.47;;;14.50;;
37647;SDS011;23490;53.656;10.076;2022-11-25T04:49:51;45.00;;;15.75;;
37647;SDS011;23490;53.656;10.076;2022-11-25T04:52:16;42.83;;;15.95;;
37647;SDS011;23490;53.656;10.076;2022-11-25T04:54:42;38.85;;;14.90;;
37647;SDS011;23490;53.656;10.076;2022-11-25T04:57:08;36.00;;;14.25;;
37647;SDS011;23490;53.656;10.076;2022-11-25T04:59:37;40.17;;;14.55;;
37647;SDS011;23490;53.656;10.076;2022-11-25T05:02:14;40.65;;;13.68;;
37647;SDS011;23490;53.656;10.076;2022-11-25T05:04:42;39.50;;;13.25;;
37647;SDS011;23490;53.656;10.076;2022-11-25T05:07:09;37.47;;;13.45;;
37647;SDS011;23490;53.656;10.076;2022-11-25T05:09:34;36.25;;;14.18;;
37647;SDS011;23490;53.656;10.076;2022-11-25T05:12:00;38.00;;;12.13;;
37647;SDS011;23490;53.656;10.076;2022-11-25T05:14:25;33.25;;;11.88;;
37647;SDS011;23490;53.656;10.076;2022-11-25T05:16:51;32.30;;;12.35;;
37647;SDS011;23490;53.656;10.076;2022-11-25T05:19:16;43.25;;;13.13;;
37647;SDS011;23490;53.656;10.076;2022-11-25T05:21:42;32.83;;;11.80;;
37647;SDS011;23490;53.656;10.076;2022-11-25T05:24:07;36.28;;;12.82;;
37647;SDS011;23490;53.656;10.076;2022-11-25T05:26:32;33.47;;;12.75;;
37647;SDS011;23490;53.656;10.076;2022-11-25T05:28:58;36.90;;;13.48;;
37647;SDS011;23490;53.656;10.076;2022-11-25T05:31:23;34.10;;;12.73;;
37647;SDS011;23490;53.656;10.076;2022-11-25T05:33:48;33.25;;;12.55;;
37647;SDS011;23490;53.656;10.076;2022-11-25T05:36:14;41.38;;;14.13;;
37647;SDS011;23490;53.656;10.076;2022-11-25T05:38:39;30.50;;;11.65;;
37647;SDS011;23490;53.656;10.076;2022-11-25T05:41:05;34.55;;;12.65;;
37647;SDS011;23490;53.656;10.076;2022-11-25T05:43:32;35.95;;;12.73;;
37647;SDS011;23490;53.656;10.076;2022-11-25T05:45:57;39.00;;;13.30;;
37647;SDS011;23490;53.656;10.076;2022-11-25T05:48:22;36.60;;;13.02;;
37647;SDS011;23490;53.656;10.076;2022-11-25T05:50:48;35.17;;;11.35;;
37647;SDS011;23490;53.656;10.076;2022-11-25T05:53:13;32.92;;;13.25;;
37647;SDS011;23490;53.656;10.076;2022-11-25T05:55:41;35.33;;;11.50;;
37647;SDS011;23490;53.656;10.076;2022-11-25T05:58:07;38.97;;;12.60;;
37647;SDS011;23490;53.656;10.076;2022-11-25T06:00:32;33.22;;;12.48;;
37647;SDS011;23490;53.656;10.076;2022-11-25T06:02:58;31.75;;;13.45;;
37647;SDS011;23490;53.656;10.076;2022-11-25T06:05:23;31.25;;;12.73;;
37647;SDS011;23490;53.656;10.076;2022-11-25T06:07:48;32.92;;;12.30;;
37647;SDS011;23490;53.656;10.076;2022-11-25T06:10:15;28.48;;;12.27;;
37647;SDS011;23490;53.656;10.076;2022-11-25T06:12:41;34.83;;;12.43;;
37647;SDS011;23490;53.656;10.076;2022-11-25T06:15:06;33.03;;;11.32;;
37647;SDS011;23490;53.656;10.076;2022-11-25T06:17:32;30.30;;;12.60;;
37647;SDS011;23490;53.656;10.076;2022-11-25T06:19:57;29.08;;;11.32;;
37647;SDS011;23490;53.656;10.076;2022-11-25T06:22:23;29.10;;;12.45;;
37647;SDS011;23490;53.656;10.076;2022-11-25T06:24:48;25.63;;;11.10;;
37647;SDS011;23490;53.656;10.076;2022-11-25T06:27:13;28.92;;;10.90;;
37647;SDS011;23490;53.656;10.076;2022-11-25T06:29:38;27.75;;;10.45;;
37647;SDS011;23490;53.656;10.076;2022-11-25T06:32:04;31.10;;;11.05;;
37647;SDS011;23490;53.656;10.076;2022-11-25T06:34:29;27.10;;;11.07;;
37647;SDS011;23490;53.656;10.076;2022-11-25T06:36:54;29.17;;;11.32;;
37647;SDS011;23490;53.656;10.076;2022-11-25T06:39:20;27.42;;;10.88;;
37647;SDS011;23490;53.656;10.076;2022-11-25T06:41:45;23.60;;;10.80;;
37647;SDS011;23490;53.656;10.076;2022-11-25T06:44:11;31.85;;;11.00;;
37647;SDS011;23490;53.656;10.076;2022-11-25T06:46:37;29.40;;;10.85;;
37647;SDS011;23490;53.656;10.076;2022-11-25T06:49:02;27.15;;;10.38;;
37647;SDS011;23490;53.656;10.076;2022-11-25T06:51:28;27.25;;;9.70;;
37647;SDS011;23490;53.656;10.076;2022-11-25T06:53:53;26.85;;;10.30;;
37647;SDS011;23490;53.656;10.076;2022-11-25T06:56:22;24.75;;;9.82;;
37647;SDS011;23490;53.656;10.076;2022-11-25T06:58:49;29.25;;;10.52;;
37647;SDS011;23490;53.656;10.076;2022-11-25T07:03:41;27.50;;;9.57;;
37647;SDS011;23490;53.656;10.076;2022-11-25T07:06:08;26.00;;;9.43;;
37647;SDS011;23490;53.656;10.076;2022-11-25T07:08:34;28.08;;;10.13;;
37647;SDS011;23490;53.656;10.076;2022-11-25T07:11:33;27.95;;;10.30;;
37647;SDS011;23490;53.656;10.076;2022-11-25T07:13:54;24.00;;;8.80;;
37647;SDS011;23490;53.656;10.076;2022-11-25T07:16:21;22.80;;;9.07;;
37647;SDS011;23490;53.656;10.076;2022-11-25T07:18:46;29.05;;;10.93;;
37647;SDS011;23490;53.656;10.076;2022-11-25T07:21:13;24.67;;;9.75;;
37647;SDS011;23490;53.656;10.076;2022-11-25T07:23:40;22.75;;;9.55;;
37647;SDS011;23490;53.656;10.076;2022-11-25T07:26:10;22.77;;;8.93;;
37647;SDS011;23490;53.656;10.076;2022-11-25T07:28:37;20.75;;;9.20;;
37647;SDS011;23490;53.656;10.076;2022-11-25T07:31:07;23.10;;;8.00;;
37647;SDS011;23490;53.656;10.076;2022-11-25T07:33:42;18.85;;;8.82;;
37647;SDS011;23490;53.656;10.076;2022-11-25T07:36:09;21.85;;;7.50;;
37647;SDS011;23490;53.656;10.076;2022-11-25T07:38:36;25.65;;;9.00;;
37647;SDS011;23490;53.656;10.076;2022-11-25T07:41:20;20.75;;;8.50;;
37647;SDS011;23490;53.656;10.076;2022-11-25T07:43:48;23.77;;;8.50;;
37647;SDS011;23490;53.656;10.076;2022-11-25T07:46:20;21.23;;;8.30;;
37647;SDS011;23490;53.656;10.076;2022-11-25T07:48:53;26.40;;;7.88;;
37647;SDS011;23490;53.656;10.076;2022-11-25T07:53:54;16.48;;;7.45;;
37647;SDS011;23490;53.656;10.076;2022-11-25T07:56:20;23.67;;;8.15;;
37647;SDS011;23490;53.656;10.076;2022-11-25T07:58:46;17.63;;;7.15;;
37647;SDS011;23490;53.656;10.076;2022-11-25T08:01:13;19.80;;;8.18;;
37647;SDS011;23490;53.656;10.076;2022-11-25T08:03:40;19.35;;;7.30;;
37647;SDS011;23490;53.656;10.076;2022-11-25T08:06:07;22.92;;;8.05;;
37647;SDS011;23490;53.656;10.076;2022-11-25T08:08:35;21.40;;;7.53;;
37647;SDS011;23490;53.656;10.076;2022-11-25T08:11:05;18.48;;;7.95;;
37647;SDS011;23490;53.656;10.076;2022-11-25T08:13:36;20.77;;;7.60;;
37647;SDS011;23490;53.656;10.076;2022-11-25T08:16:02;16.95;;;7.35;;
37647;SDS011;23490;53.656;10.076;2022-11-25T08:18:27;18.45;;;7.38;;
37647;SDS011;23490;53.656;10.076;2022-11-25T08:20:57;18.17;;;7.38;;
37647;SDS011;23490;53.656;10.076;2022-11-25T08:23:26;13.57;;;6.45;;
37647;SDS011;23490;53.656;10.076;2022-11-25T08:25:51;16.98;;;7.57;;
37647;SDS011;23490;53.656;10.076;2022-11-25T08:28:17;18.13;;;6.70;;
37647;SDS011;23490;53.656;10.076;2022-11-25T08:30:42;20.35;;;6.88;;
37647;SDS011;23490;53.656;10.076;2022-11-25T08:33:08;20.33;;;6.68;;
37647;SDS011;23490;53.656;10.076;2022-11-25T08:35:33;19.83;;;7.95;;
37647;SDS011;23490;53.656;10.076;2022-11-25T08:38:05;18.67;;;7.60;;
37647;SDS011;23490;53.656;10.076;2022-11-25T08:40:32;14.95;;;6.43;;
37647;SDS011;23490;53.656;10.076;2022-11-25T08:42:58;16.63;;;6.30;;
37647;SDS011;23490;53.656;10.076;2022-11-25T08:45:23;19.10;;;7.43;;
37647;SDS011;23490;53.656;10.076;2022-11-25T08:47:49;16.00;;;6.43;;
37647;SDS011;23490;53.656;10.076;2022-11-25T08:50:14;17.80;;;6.95;;
37647;SDS011;23490;53.656;10.076;2022-11-25T08:52:40;15.23;;;6.63;;
37647;SDS011;23490;53.656;10.076;2022-11-25T08:55:06;15.23;;;6.47;;
37647;SDS011;23490;53.656;10.076;2022-11-25T08:57:33;14.70;;;6.35;;
37647;SDS011;23490;53.656;10.076;2022-11-25T08:59:59;14.48;;;6.50;;
37647;SDS011;23490;53.656;10.076;2022-11-25T09:02:25;16.17;;;6.53;;
37647;SDS011;23490;53.656;10.076;2022-11-25T09:04:50;16.75;;;6.07;;
37647;SDS011;23490;53.656;10.076;2022-11-25T09:07:16;15.80;;;6.55;;
37647;SDS011;23490;53.656;10.076;2022-11-25T09:09:41;13.60;;;6.13;;
37647;SDS011;23490;53.656;10.076;2022-11-25T09:12:06;17.13;;;5.88;;
37647;SDS011;23490;53.656;10.076;2022-11-25T09:14:32;16.67;;;6.78;;
37647;SDS011;23490;53.656;10.076;2022-11-25T09:16:57;17.70;;;6.85;;
37647;SDS011;23490;53.656;10.076;2022-11-25T09:19:22;15.68;;;5.82;;
37647;SDS011;23490;53.656;10.076;2022-11-25T09:21:48;14.13;;;5.95;;
37647;SDS011;23490;53.656;10.076;2022-11-25T09:24:13;18.85;;;6.93;;
37647;SDS011;23490;53.656;10.076;2022-11-25T09:26:38;15.98;;;6.65;;
37647;SDS011;23490;53.656;10.076;2022-11-25T09:29:05;15.20;;;6.00;;
37647;SDS011;23490;53.656;10.076;2022-11-25T09:31:31;14.70;;;6.32;;
37647;SDS011;23490;53.656;10.076;2022-11-25T09:33:56;13.73;;;6.40;;
37647;SDS011;23490;53.656;10.076;2022-11-25T09:36:22;17.60;;;6.13;;
37647;SDS011;23490;53.656;10.076;2022-11-25T09:38:49;14.20;;;6.18;;
37647;SDS011;23490;53.656;10.076;2022-11-25T09:47:51;15.80;;;6.03;;
37647;SDS011;23490;53.656;10.076;2022-11-25T09:50:34;14.10;;;5.63;;
37647;SDS011;23490;53.656;10.076;2022-11-25T09:53:21;16.52;;;6.78;;
37647;SDS011;23490;53.656;10.076;2022-11-25T09:56:03;12.60;;;5.25;;
37647;SDS011;23490;53.656;10.076;2022-11-25T09:58:39;15.75;;;5.72;;
37647;SDS011;23490;53.656;10.076;2022-11-25T10:01:14;16.45;;;6.47;;
37647;SDS011;23490;53.656;10.076;2022-11-25T10:06:48;18.48;;;6.03;;
37647;SDS011;23490;53.656;10.076;2022-11-25T10:09:19;15.05;;;5.88;;
37647;SDS011;23490;53.656;10.076;2022-11-25T10:11:53;20.85;;;7.32;;
37647;SDS011;23490;53.656;10.076;2022-11-25T10:17:05;14.48;;;5.72;;
37647;SDS011;23490;53.656;10.076;2022-11-25T10:19:56;16.08;;;5.45;;
37647;SDS011;23490;53.656;10.076;2022-11-25T10:22:31;13.32;;;5.65;;
37647;SDS011;23490;53.656;10.076;2022-11-25T10:25:00;14.50;;;5.88;;
37647;SDS011;23490;53.656;10.076;2022-11-25T10:27:44;17.55;;;5.50;;
37647;SDS011;23490;53.656;10.076;2022-11-25T10:30:23;14.82;;;5.75;;
37647;SDS011;23490;53.656;10.076;2022-11-25T10:32:52;16.88;;;6.07;;
37647;SDS011;23490;53.656;10.076;2022-11-25T10:35:19;19.67;;;7.07;;
37647;SDS011;23490;53.656;10.076;2022-11-25T10:37:52;18.88;;;5.85;;
37647;SDS011;23490;53.656;10.076;2022-11-25T10:40:20;17.90;;;6.75;;
37647;SDS011;23490;53.656;10.076;2022-11-25T10:42:45;12.73;;;5.60;;
37647;SDS011;23490;53.656;10.076;2022-11-25T10:45:11;14.63;;;5.70;;
37647;SDS011;23490;53.656;10.076;2022-11-25T10:47:49;14.63;;;5.70;;
37647;SDS011;23490;53.656;10.076;2022-11-25T10:53:02;18.88;;;5.28;;
37647;SDS011;23490;53.656;10.076;2022-11-25T10:55:36;15.15;;;5.75;;
37647;SDS011;23490;53.656;10.076;2022-11-25T10:58:46;14.82;;;5.70;;
37647;SDS011;23490;53.656;10.076;2022-11-25T11:01:00;15.75;;;5.80;;
37647;SDS011;23490;53.656;10.076;2022-11-25T11:03:45;16.73;;;5.55;;
37647;SDS011;23490;53.656;10.076;2022-11-25T11:09:32;15.73;;;5.75;;
37647;SDS011;23490;53.656;10.076;2022-11-25T11:14:48;19.48;;;6.43;;
37647;SDS011;23490;53.656;10.076;2022-11-25T11:17:21;17.08;;;6.20;;
37647;SDS011;23490;53.656;10.076;2022-11-25T11:22:32;19.77;;;6.28;;
37647;SDS011;23490;53.656;10.076;2022-11-25T11:25:21;14.80;;;5.93;;
37647;SDS011;23490;53.656;10.076;2022-11-25T11:27:51;15.48;;;7.20;;
37647;SDS011;23490;53.656;10.076;2022-11-25T11:30:19;18.77;;;6.25;;
37647;SDS011;23490;53.656;10.076;2022-11-25T11:33:00;20.60;;;6.20;;
37647;SDS011;23490;53.656;10.076;2022-11-25T11:35:28;20.00;;;7.68;;
37647;SDS011;23490;53.656;10.076;2022-11-25T11:38:26;19.53;;;6.83;;
37647;SDS011;23490;53.656;10.076;2022-11-25T11:40:59;19.52;;;6.65;;
37647;SDS011;23490;53.656;10.076;2022-11-25T11:43:40;17.13;;;6.18;;
37647;SDS011;23490;53.656;10.076;2022-11-25T11:46:57;18.50;;;6.90;;
37647;SDS011;23490;53.656;10.076;2022-11-25T11:49:27;17.38;;;6.95;;
37647;SDS011;23490;53.656;10.076;2022-11-25T11:52:18;20.42;;;7.43;;
37647;SDS011;23490;53.656;10.076;2022-11-25T11:54:57;17.63;;;7.47;;
37647;SDS011;23490;53.656;10.076;2022-11-25T11:57:34;16.85;;;6.90;;
37647;SDS011;23490;53.656;10.076;2022-11-25T12:00:10;15.57;;;6.28;;
37647;SDS011;23490;53.656;10.076;2022-11-25T12:05:26;19.08;;;7.05;;
37647;SDS011;23490;53.656;10.076;2022-11-25T12:08:05;21.25;;;7.93;;
37647;SDS011;23490;53.656;10.076;2022-11-25T12:10:39;15.68;;;6.25;;
37647;SDS011;23490;53.656;10.076;2022-11-25T12:18:20;15.57;;;6.85;;
37647;SDS011;23490;53.656;10.076;2022-11-25T12:21:01;21.42;;;7.38;;
37647;SDS011;23490;53.656;10.076;2022-11-25T12:23:50;20.05;;;7.25;;
37647;SDS011;23490;53.656;10.076;2022-11-25T12:26:28;15.55;;;6.57;;
37647;SDS011;23490;53.656;10.076;2022-11-25T12:29:01;19.13;;;7.28;;
37647;SDS011;23490;53.656;10.076;2022-11-25T12:31:36;17.70;;;6.60;;
37647;SDS011;23490;53.656;10.076;2022-11-25T12:35:12;19.15;;;7.38;;
37647;SDS011;23490;53.656;10.076;2022-11-25T12:37:11;17.13;;;6.90;;
37647;SDS011;23490;53.656;10.076;2022-11-25T12:39:47;19.30;;;7.15;;
37647;SDS011;23490;53.656;10.076;2022-11-25T12:42:24;18.20;;;6.43;;
37647;SDS011;23490;53.656;10.076;2022-11-25T12:44:59;15.77;;;6.72;;
37647;SDS011;23490;53.656;10.076;2022-11-25T12:47:29;20.85;;;6.47;;
37647;SDS011;23490;53.656;10.076;2022-11-25T12:49:54;15.40;;;6.18;;
37647;SDS011;23490;53.656;10.076;2022-11-25T13:03:24;19.33;;;7.00;;
37647;SDS011;23490;53.656;10.076;2022-11-25T13:14:49;18.90;;;7.97;;
37647;SDS011;23490;53.656;10.076;2022-11-25T13:17:38;20.15;;;8.02;;
37647;SDS011;23490;53.656;10.076;2022-11-25T13:25:28;17.08;;;6.63;;
37647;SDS011;23490;53.656;10.076;2022-11-25T13:32:56;17.60;;;7.55;;
37647;SDS011;23490;53.656;10.076;2022-11-25T13:41:31;19.60;;;6.82;;
37647;SDS011;23490;53.656;10.076;2022-11-25T13:44:15;21.50;;;8.00;;
37647;SDS011;23490;53.656;10.076;2022-11-25T13:46:48;18.45;;;7.47;;
37647;SDS011;23490;53.656;10.076;2022-11-25T13:52:36;21.83;;;8.52;;
37647;SDS011;23490;53.656;10.076;2022-11-25T13:55:47;14.60;;;8.07;;
37647;SDS011;23490;53.656;10.076;2022-11-25T13:57:59;16.75;;;7.72;;
37647;SDS011;23490;53.656;10.076;2022-11-25T14:02:55;18.65;;;7.72;;
37647;SDS011;23490;53.656;10.076;2022-11-25T14:21:23;17.75;;;8.57;;
37647;SDS011;23490;53.656;10.076;2022-11-25T14:26:59;20.10;;;7.85;;
37647;SDS011;23490;53.656;10.076;2022-11-25T14:29:34;18.80;;;7.82;;
37647;SDS011;23490;53.656;10.076;2022-11-25T14:32:06;21.45;;;8.38;;
37647;SDS011;23490;53.656;10.076;2022-11-25T14:34:40;18.13;;;7.70;;
37647;SDS011;23490;53.656;10.076;2022-11-25T14:43:13;15.50;;;7.72;;
37647;SDS011;23490;53.656;10.076;2022-11-25T14:45:42;25.95;;;12.25;;
37647;SDS011;23490;53.656;10.076;2022-11-25T14:48:14;24.45;;;11.82;;
37647;SDS011;23490;53.656;10.076;2022-11-25T14:50:52;27.15;;;10.05;;
37647;SDS011;23490;53.656;10.076;2022-11-25T14:53:22;25.85;;;8.15;;
37647;SDS011;23490;53.656;10.076;2022-11-25T14:55:49;23.42;;;9.50;;
37647;SDS011;23490;53.656;10.076;2022-11-25T14:58:15;20.58;;;8.80;;
37647;SDS011;23490;53.656;10.076;2022-11-25T15:00:50;21.00;;;8.48;;
37647;SDS011;23490;53.656;10.076;2022-11-25T15:03:16;17.90;;;8.52;;
37647;SDS011;23490;53.656;10.076;2022-11-25T15:05:44;26.30;;;8.07;;
37647;SDS011;23490;53.656;10.076;2022-11-25T15:08:18;23.85;;;8.48;;
37647;SDS011;23490;53.656;10.076;2022-11-25T15:10:49;22.88;;;8.43;;
37647;SDS011;23490;53.656;10.076;2022-11-25T15:16:07;19.92;;;9.40;;
37647;SDS011;23490;53.656;10.076;2022-11-25T15:18:33;17.75;;;8.75;;
37647;SDS011;23490;53.656;10.076;2022-11-25T15:20:59;23.70;;;9.55;;
37647;SDS011;23490;53.656;10.076;2022-11-25T15:23:29;19.80;;;8.75;;
37647;SDS011;23490;53.656;10.076;2022-11-25T15:25:59;27.77;;;9.65;;
37647;SDS011;23490;53.656;10.076;2022-11-25T15:28:25;21.10;;;8.63;;
37647;SDS011;23490;53.656;10.076;2022-11-25T15:30:58;17.77;;;8.50;;
37647;SDS011;23490;53.656;10.076;2022-11-25T15:33:24;20.35;;;8.43;;
37647;SDS011;23490;53.656;10.076;2022-11-25T15:35:52;23.17;;;9.25;;
37647;SDS011;23490;53.656;10.076;2022-11-25T15:38:37;22.05;;;8.15;;
37647;SDS011;23490;53.656;10.076;2022-11-25T15:41:13;24.23;;;8.98;;
37647;SDS011;23490;53.656;10.076;2022-11-25T15:43:46;20.75;;;9.23;;
37647;SDS011;23490;53.656;10.076;2022-11-25T15:46:14;17.35;;;8.75;;
37647;SDS011;23490;53.656;10.076;2022-11-25T15:48:48;17.67;;;8.55;;
37647;SDS011;23490;53.656;10.076;2022-11-25T15:51:19;23.13;;;8.52;;
37647;SDS011;23490;53.656;10.076;2022-11-25T15:53:49;23.92;;;9.35;;
37647;SDS011;23490;53.656;10.076;2022-11-25T15:56:18;26.40;;;9.05;;
37647;SDS011;23490;53.656;10.076;2022-11-25T15:58:48;22.98;;;9.85;;
37647;SDS011;23490;53.656;10.076;2022-11-25T16:03:39;24.20;;;9.05;;
37647;SDS011;23490;53.656;10.076;2022-11-25T16:06:26;21.77;;;9.40;;
37647;SDS011;23490;53.656;10.076;2022-11-25T16:08:56;19.42;;;8.18;;
37647;SDS011;23490;53.656;10.076;2022-11-25T16:11:24;27.02;;;8.77;;
37647;SDS011;23490;53.656;10.076;2022-11-25T16:16:39;24.65;;;9.90;;
37647;SDS011;23490;53.656;10.076;2022-11-25T16:19:08;22.33;;;9.27;;
37647;SDS011;23490;53.656;10.076;2022-11-25T16:29:30;21.52;;;9.68;;
37647;SDS011;23490;53.656;10.076;2022-11-25T16:32:23;24.15;;;10.50;;
37647;SDS011;23490;53.656;10.076;2022-11-25T16:34:54;22.92;;;9.95;;
37647;SDS011;23490;53.656;10.076;2022-11-25T16:37:21;22.33;;;10.65;;